sensor_id;sensor_type;location;lat;lon;timestamp;temperature;humidity
21744;DHT22;11034;48.556;9.342;2023-05-07T00:00:04;16.00;99.90
21744;DHT22;11034;48.556;9.342;2023-05-07T00:02:35;15.90;99.90
21744;DHT22;11034;48.556;9.342;2023-05-07T00:05:04;16.00;99.90
21744;DHT22;11034;48.556;9.342;2023-05-07T00:07:33;15.90;99.90
21744;DHT22;11034;48.556;9.342;2023-05-07T00:10:01;15.90;99.90
21744;DHT22;11034;48.556;9.342;2023-05-07T00:12:30;15.80;99.90
21744;DHT22;11034;48.556;9.342;2023-05-07T00:15:01;15.80;99.90
21744;DHT22;11034;48.556;9.342;2023-05-07T00:17:29;15.80;99.90
21744;DHT22;11034;48.556;9.342;2023-05-07T00:19:57;15.80;99.90
21744;DHT22;11034;48.556;9.342;2023-05-07T00:22:25;15.80;99.90
21744;DHT22;11034;48.556;9.342;2023-05-07T00:24:53;15.90;99.90
21744;DHT22;11034;48.556;9.342;2023-05-07T00:27:21;15.90;99.90
21744;DHT22;11034;48.556;9.342;2023-05-07T00:29:50;15.90;99.90
21744;DHT22;11034;48.556;9.342;2023-05-07T00:32:18;15.90;99.90
21744;DHT22;11034;48.556;9.342;2023-05-07T00:34:47;15.90;99.90
21744;DHT22;11034;48.556;9.342;2023-05-07T00:37:14;15.90;99.90
21744;DHT22;11034;48.556;9.342;2023-05-07T00:39:42;15.90;99.90
21744;DHT22;11034;48.556;9.342;2023-05-07T00:42:10;15.90;99.90
21744;DHT22;11034;48.556;9.342;2023-05-07T00:44:38;15.60;99.90
21744;DHT22;11034;48.556;9.342;2023-05-07T00:47:08;15.30;99.90
21744;DHT22;11034;48.556;9.342;2023-05-07T00:49:38;14.90;99.90
21744;DHT22;11034;48.556;9.342;2023-05-07T00:52:09;14.50;99.90
21744;DHT22;11034;48.556;9.342;2023-05-07T00:54:38;14.20;99.90
21744;DHT22;11034;48.556;9.342;2023-05-07T00:57:09;14.10;99.90
21744;DHT22;11034;48.556;9.342;2023-05-07T00:59:38;13.90;99.90
21744;DHT22;11034;48.556;9.342;2023-05-07T01:02:07;13.70;99.90
21744;DHT22;11034;48.556;9.342;2023-05-07T01:04:36;13.60;99.90
21744;DHT22;11034;48.556;9.342;2023-05-07T01:07:05;13.50;99.90
21744;DHT22;11034;48.556;9.342;2023-05-07T01:09:33;13.50;99.90
21744;DHT22;11034;48.556;9.342;2023-05-07T01:12:03;13.50;99.90
21744;DHT22;11034;48.556;9.342;2023-05-07T01:14:32;13.40;99.90
21744;DHT22;11034;48.556;9.342;2023-05-07T01:17:00;13.40;99.90
21744;DHT22;11034;48.556;9.342;2023-05-07T01:19:30;13.40;99.90
21744;DHT22;11034;48.556;9.342;2023-05-07T01:22:02;13.40;99.90
21744;DHT22;11034;48.556;9.342;2023-05-07T01:24:33;13.30;99.90
21744;DHT22;11034;48.556;9.342;2023-05-07T01:27:01;13.30;99.90
21744;DHT22;11034;48.556;9.342;2023-05-07T01:29:29;13.40;99.90
21744;DHT22;11034;48.556;9.342;2023-05-07T01:31:59;13.50;99.90
21744;DHT22;11034;48.556;9.342;2023-05-07T01:34:31;13.50;99.90
21744;DHT22;11034;48.556;9.342;2023-05-07T01:37:00;13.50;99.90
21744;DHT22;11034;48.556;9.342;2023-05-07T01:39:30;13.50;99.90
21744;DHT22;11034;48.556;9.342;2023-05-07T01:41:59;13.40;99.90
21744;DHT22;11034;48.556;9.342;2023-05-07T01:44:28;13.50;99.90
21744;DHT22;11034;48.556;9.342;2023-05-07T01:46:57;13.60;99.90
21744;DHT22;11034;48.556;9.342;2023-05-07T01:49:25;13.80;99.90
21744;DHT22;11034;48.556;9.342;2023-05-07T01:51:53;13.90;99.90
21744;DHT22;11034;48.556;9.342;2023-05-07T01:54:25;14.10;99.90
21744;DHT22;11034;48.556;9.342;2023-05-07T01:56:56;14.20;99.90
21744;DHT22;11034;48.556;9.342;2023-05-07T01:59:25;14.10;99.90
21744;DHT22;11034;48.556;9.342;2023-05-07T02:01:53;14.30;99.90
21744;DHT22;11034;48.556;9.342;2023-05-07T02:04:21;14.20;99.90
21744;DHT22;11034;48.556;9.342;2023-05-07T02:06:49;14.30;99.90
21744;DHT22;11034;48.556;9.342;2023-05-07T02:09:17;14.30;99.90
21744;DHT22;11034;48.556;9.342;2023-05-07T02:11:45;14.20;99.90
21744;DHT22;11034;48.556;9.342;2023-05-07T02:14:13;14.10;99.90
21744;DHT22;11034;48.556;9.342;2023-05-07T02:16:43;14.00;99.90
21744;DHT22;11034;48.556;9.342;2023-05-07T02:19:11;14.00;99.90
21744;DHT22;11034;48.556;9.342;2023-05-07T02:21:39;13.80;99.90
21744;DHT22;11034;48.556;9.342;2023-05-07T02:24:07;13.70;99.90
21744;DHT22;11034;48.556;9.342;2023-05-07T02:26:35;13.50;99.90
21744;DHT22;11034;48.556;9.342;2023-05-07T02:29:03;13.40;99.90
21744;DHT22;11034;48.556;9.342;2023-05-07T02:31:31;13.40;99.90
21744;DHT22;11034;48.556;9.342;2023-05-07T02:34:02;13.20;99.90
21744;DHT22;11034;48.556;9.342;2023-05-07T02:36:30;13.10;99.90
21744;DHT22;11034;48.556;9.342;2023-05-07T02:38:58;12.90;99.90
21744;DHT22;11034;48.556;9.342;2023-05-07T02:41:26;12.80;99.90
21744;DHT22;11034;48.556;9.342;2023-05-07T02:43:54;12.80;99.90
21744;DHT22;11034;48.556;9.342;2023-05-07T02:46:22;12.70;99.90
21744;DHT22;11034;48.556;9.342;2023-05-07T02:48:51;12.70;99.90
21744;DHT22;11034;48.556;9.342;2023-05-07T02:51:21;12.50;99.90
21744;DHT22;11034;48.556;9.342;2023-05-07T02:53:51;12.50;99.90
21744;DHT22;11034;48.556;9.342;2023-05-07T02:56:19;12.50;99.90
21744;DHT22;11034;48.556;9.342;2023-05-07T02:58:47;12.40;99.90
21744;DHT22;11034;48.556;9.342;2023-05-07T03:01:15;12.30;99.90
21744;DHT22;11034;48.556;9.342;2023-05-07T03:03:44;12.20;99.90
21744;DHT22;11034;48.556;9.342;2023-05-07T03:06:12;12.10;99.90
21744;DHT22;11034;48.556;9.342;2023-05-07T03:08:41;12.00;99.90
21744;DHT22;11034;48.556;9.342;2023-05-07T03:11:09;11.90;99.90
21744;DHT22;11034;48.556;9.342;2023-05-07T03:13:37;11.90;99.90
21744;DHT22;11034;48.556;9.342;2023-05-07T03:16:06;11.90;99.90
21744;DHT22;11034;48.556;9.342;2023-05-07T03:18:34;11.80;99.90
21744;DHT22;11034;48.556;9.342;2023-05-07T03:21:02;11.80;99.90
21744;DHT22;11034;48.556;9.342;2023-05-07T03:23:30;11.70;99.90
21744;DHT22;11034;48.556;9.342;2023-05-07T03:26:00;11.70;99.90
21744;DHT22;11034;48.556;9.342;2023-05-07T03:28:28;11.70;99.90
21744;DHT22;11034;48.556;9.342;2023-05-07T03:30:55;11.70;99.90
21744;DHT22;11034;48.556;9.342;2023-05-07T03:33:24;11.70;99.90
21744;DHT22;11034;48.556;9.342;2023-05-07T03:35:52;11.70;99.90
21744;DHT22;11034;48.556;9.342;2023-05-07T03:38:20;11.70;99.90
21744;DHT22;11034;48.556;9.342;2023-05-07T03:40:48;11.70;99.90
21744;DHT22;11034;48.556;9.342;2023-05-07T03:43:17;11.70;99.90
21744;DHT22;11034;48.556;9.342;2023-05-07T03:45:45;11.80;99.90
21744;DHT22;11034;48.556;9.342;2023-05-07T03:48:13;11.80;99.90
21744;DHT22;11034;48.556;9.342;2023-05-07T03:50:41;11.80;99.90
21744;DHT22;11034;48.556;9.342;2023-05-07T03:53:09;11.80;99.90
21744;DHT22;11034;48.556;9.342;2023-05-07T03:55:37;11.90;99.90
21744;DHT22;11034;48.556;9.342;2023-05-07T03:58:05;11.90;99.90
21744;DHT22;11034;48.556;9.342;2023-05-07T04:00:34;11.90;99.90
21744;DHT22;11034;48.556;9.342;2023-05-07T04:03:05;11.90;99.90
21744;DHT22;11034;48.556;9.342;2023-05-07T04:05:33;11.90;99.90
21744;DHT22;11034;48.556;9.342;2023-05-07T04:08:01;11.90;99.90
21744;DHT22;11034;48.556;9.342;2023-05-07T04:10:30;11.90;99.90
21744;DHT22;11034;48.556;9.342;2023-05-07T04:12:58;12.00;99.90
21744;DHT22;11034;48.556;9.342;2023-05-07T04:15:26;12.00;99.90
21744;DHT22;11034;48.556;9.342;2023-05-07T04:17:55;12.00;99.90
21744;DHT22;11034;48.556;9.342;2023-05-07T04:20:23;12.10;99.90
21744;DHT22;11034;48.556;9.342;2023-05-07T04:22:51;12.20;99.90
21744;DHT22;11034;48.556;9.342;2023-05-07T04:25:19;12.20;99.90
21744;DHT22;11034;48.556;9.342;2023-05-07T04:27:47;12.20;99.90
21744;DHT22;11034;48.556;9.342;2023-05-07T04:30:17;12.30;99.90
21744;DHT22;11034;48.556;9.342;2023-05-07T04:32:45;12.30;99.90
21744;DHT22;11034;48.556;9.342;2023-05-07T04:35:14;12.30;99.90
21744;DHT22;11034;48.556;9.342;2023-05-07T04:37:42;12.40;99.90
21744;DHT22;11034;48.556;9.342;2023-05-07T04:40:10;12.50;99.90
21744;DHT22;11034;48.556;9.342;2023-05-07T04:42:39;12.70;99.90
21744;DHT22;11034;48.556;9.342;2023-05-07T04:45:07;12.80;99.90
21744;DHT22;11034;48.556;9.342;2023-05-07T04:47:36;13.20;99.90
21744;DHT22;11034;48.556;9.342;2023-05-07T04:50:06;13.70;99.90
21744;DHT22;11034;48.556;9.342;2023-05-07T04:52:36;14.80;99.90
21744;DHT22;11034;48.556;9.342;2023-05-07T04:55:05;15.30;99.90
21744;DHT22;11034;48.556;9.342;2023-05-07T04:57:33;15.30;99.90
21744;DHT22;11034;48.556;9.342;2023-05-07T05:00:01;16.30;99.90
21744;DHT22;11034;48.556;9.342;2023-05-07T05:02:30;17.00;99.90
21744;DHT22;11034;48.556;9.342;2023-05-07T05:04:59;17.60;99.90
21744;DHT22;11034;48.556;9.342;2023-05-07T05:07:28;18.20;99.90
21744;DHT22;11034;48.556;9.342;2023-05-07T05:09:57;18.70;99.90
21744;DHT22;11034;48.556;9.342;2023-05-07T05:12:25;19.10;99.90
21744;DHT22;11034;48.556;9.342;2023-05-07T05:14:53;19.20;99.90
21744;DHT22;11034;48.556;9.342;2023-05-07T05:17:21;19.40;99.90
21744;DHT22;11034;48.556;9.342;2023-05-07T05:19:50;19.90;99.90
21744;DHT22;11034;48.556;9.342;2023-05-07T05:22:18;19.70;99.90
21744;DHT22;11034;48.556;9.342;2023-05-07T05:24:47;19.70;99.90
21744;DHT22;11034;48.556;9.342;2023-05-07T05:27:17;20.70;99.90
21744;DHT22;11034;48.556;9.342;2023-05-07T05:29:45;21.40;99.90
21744;DHT22;11034;48.556;9.342;2023-05-07T05:32:13;21.70;99.90
21744;DHT22;11034;48.556;9.342;2023-05-07T05:34:40;22.20;99.90
21744;DHT22;11034;48.556;9.342;2023-05-07T05:37:09;22.60;99.90
21744;DHT22;11034;48.556;9.342;2023-05-07T05:39:37;22.00;99.90
21744;DHT22;11034;48.556;9.342;2023-05-07T05:42:05;21.20;99.90
21744;DHT22;11034;48.556;9.342;2023-05-07T05:44:34;22.10;99.90
21744;DHT22;11034;48.556;9.342;2023-05-07T05:47:03;23.00;99.90
21744;DHT22;11034;48.556;9.342;2023-05-07T05:49:31;23.90;99.90
21744;DHT22;11034;48.556;9.342;2023-05-07T05:51:59;24.80;99.90
21744;DHT22;11034;48.556;9.342;2023-05-07T05:54:27;24.30;99.90
21744;DHT22;11034;48.556;9.342;2023-05-07T05:56:55;24.30;99.90
21744;DHT22;11034;48.556;9.342;2023-05-07T05:59:23;24.40;99.90
21744;DHT22;11034;48.556;9.342;2023-05-07T06:01:52;24.10;99.90
21744;DHT22;11034;48.556;9.342;2023-05-07T06:04:20;24.10;99.90
21744;DHT22;11034;48.556;9.342;2023-05-07T06:06:48;23.60;99.90
21744;DHT22;11034;48.556;9.342;2023-05-07T06:09:16;24.80;99.90
21744;DHT22;11034;48.556;9.342;2023-05-07T06:11:44;25.30;99.90
21744;DHT22;11034;48.556;9.342;2023-05-07T06:14:12;26.00;99.90
21744;DHT22;11034;48.556;9.342;2023-05-07T06:16:40;25.30;99.90
21744;DHT22;11034;48.556;9.342;2023-05-07T06:19:10;26.10;99.90
21744;DHT22;11034;48.556;9.342;2023-05-07T06:21:39;26.30;99.90
21744;DHT22;11034;48.556;9.342;2023-05-07T06:24:07;25.50;99.90
21744;DHT22;11034;48.556;9.342;2023-05-07T06:26:35;25.40;99.90
21744;DHT22;11034;48.556;9.342;2023-05-07T06:29:03;24.40;99.90
21744;DHT22;11034;48.556;9.342;2023-05-07T06:31:31;25.90;99.90
21744;DHT22;11034;48.556;9.342;2023-05-07T06:33:59;25.40;99.90
21744;DHT22;11034;48.556;9.342;2023-05-07T06:36:30;26.00;99.90
21744;DHT22;11034;48.556;9.342;2023-05-07T06:38:58;27.10;99.90
21744;DHT22;11034;48.556;9.342;2023-05-07T06:41:26;27.20;99.90
21744;DHT22;11034;48.556;9.342;2023-05-07T06:43:54;27.00;99.90
21744;DHT22;11034;48.556;9.342;2023-05-07T06:46:22;25.70;99.90
21744;DHT22;11034;48.556;9.342;2023-05-07T06:48:50;25.50;99.90
21744;DHT22;11034;48.556;9.342;2023-05-07T06:51:18;24.40;99.90
21744;DHT22;11034;48.556;9.342;2023-05-07T06:53:48;24.60;99.90
21744;DHT22;11034;48.556;9.342;2023-05-07T06:56:16;23.80;99.90
21744;DHT22;11034;48.556;9.342;2023-05-07T06:58:44;24.00;99.90
21744;DHT22;11034;48.556;9.342;2023-05-07T07:01:12;23.80;99.90
21744;DHT22;11034;48.556;9.342;2023-05-07T07:03:40;24.10;99.90
21744;DHT22;11034;48.556;9.342;2023-05-07T07:06:08;24.00;99.90
21744;DHT22;11034;48.556;9.342;2023-05-07T07:08:36;23.70;99.90
21744;DHT22;11034;48.556;9.342;2023-05-07T07:11:08;23.80;99.90
21744;DHT22;11034;48.556;9.342;2023-05-07T07:13:36;23.30;99.90
21744;DHT22;11034;48.556;9.342;2023-05-07T07:16:04;22.90;99.90
21744;DHT22;11034;48.556;9.342;2023-05-07T07:18:32;22.10;99.90
21744;DHT22;11034;48.556;9.342;2023-05-07T07:21:00;22.10;99.90
21744;DHT22;11034;48.556;9.342;2023-05-07T07:23:28;22.30;99.90
21744;DHT22;11034;48.556;9.342;2023-05-07T07:25:56;22.40;99.90
21744;DHT22;11034;48.556;9.342;2023-05-07T07:28:26;22.20;99.90
21744;DHT22;11034;48.556;9.342;2023-05-07T07:30:54;22.60;99.90
21744;DHT22;11034;48.556;9.342;2023-05-07T07:33:21;22.70;99.90
21744;DHT22;11034;48.556;9.342;2023-05-07T07:35:49;22.60;99.90
21744;DHT22;11034;48.556;9.342;2023-05-07T07:38:17;23.00;99.90
21744;DHT22;11034;48.556;9.342;2023-05-07T07:40:47;23.60;99.90
21744;DHT22;11034;48.556;9.342;2023-05-07T07:43:15;24.10;99.90
21744;DHT22;11034;48.556;9.342;2023-05-07T07:45:44;24.10;99.90
21744;DHT22;11034;48.556;9.342;2023-05-07T07:48:12;24.70;99.90
21744;DHT22;11034;48.556;9.342;2023-05-07T07:50:40;24.70;99.90
21744;DHT22;11034;48.556;9.342;2023-05-07T07:53:11;25.10;99.90
21744;DHT22;11034;48.556;9.342;2023-05-07T07:55:40;25.10;99.90
21744;DHT22;11034;48.556;9.342;2023-05-07T07:58:08;24.60;99.90
21744;DHT22;11034;48.556;9.342;2023-05-07T08:00:36;24.00;99.90
21744;DHT22;11034;48.556;9.342;2023-05-07T08:03:05;23.20;99.90
21744;DHT22;11034;48.556;9.342;2023-05-07T08:05:34;23.10;99.90
21744;DHT22;11034;48.556;9.342;2023-05-07T08:08:03;23.50;99.90
21744;DHT22;11034;48.556;9.342;2023-05-07T08:10:31;23.40;99.90
21744;DHT22;11034;48.556;9.342;2023-05-07T08:13:01;23.00;99.90
21744;DHT22;11034;48.556;9.342;2023-05-07T08:15:30;22.70;99.90
21744;DHT22;11034;48.556;9.342;2023-05-07T08:17:59;22.50;99.90
21744;DHT22;11034;48.556;9.342;2023-05-07T08:20:29;22.10;99.90
21744;DHT22;11034;48.556;9.342;2023-05-07T08:22:57;21.80;99.90
21744;DHT22;11034;48.556;9.342;2023-05-07T08:25:25;21.20;99.90
21744;DHT22;11034;48.556;9.342;2023-05-07T08:27:53;20.70;99.90
21744;DHT22;11034;48.556;9.342;2023-05-07T08:30:21;20.50;99.90
21744;DHT22;11034;48.556;9.342;2023-05-07T08:32:49;20.30;99.90
21744;DHT22;11034;48.556;9.342;2023-05-07T08:35:17;20.50;99.90
21744;DHT22;11034;48.556;9.342;2023-05-07T08:37:46;20.50;99.90
21744;DHT22;11034;48.556;9.342;2023-05-07T08:40:14;20.50;99.90
21744;DHT22;11034;48.556;9.342;2023-05-07T08:42:44;20.50;99.90
21744;DHT22;11034;48.556;9.342;2023-05-07T08:45:13;20.40;99.90
21744;DHT22;11034;48.556;9.342;2023-05-07T08:47:43;20.80;99.90
21744;DHT22;11034;48.556;9.342;2023-05-07T08:50:13;20.90;99.90
21744;DHT22;11034;48.556;9.342;2023-05-07T08:52:41;21.00;99.90
21744;DHT22;11034;48.556;9.342;2023-05-07T08:55:11;21.20;99.90
21744;DHT22;11034;48.556;9.342;2023-05-07T08:57:40;21.40;99.90
21744;DHT22;11034;48.556;9.342;2023-05-07T09:00:09;21.50;99.90
21744;DHT22;11034;48.556;9.342;2023-05-07T09:02:37;21.60;99.90
21744;DHT22;11034;48.556;9.342;2023-05-07T09:05:07;21.60;99.90
21744;DHT22;11034;48.556;9.342;2023-05-07T09:07:35;21.80;99.90
21744;DHT22;11034;48.556;9.342;2023-05-07T09:10:04;21.70;99.90
21744;DHT22;11034;48.556;9.342;2023-05-07T09:12:34;21.70;99.90
21744;DHT22;11034;48.556;9.342;2023-05-07T09:15:03;21.60;99.90
21744;DHT22;11034;48.556;9.342;2023-05-07T09:17:32;21.50;99.90
21744;DHT22;11034;48.556;9.342;2023-05-07T09:20:02;21.70;99.90
21744;DHT22;11034;48.556;9.342;2023-05-07T09:22:33;21.90;99.90
21744;DHT22;11034;48.556;9.342;2023-05-07T09:25:01;21.50;99.90
21744;DHT22;11034;48.556;9.342;2023-05-07T09:27:30;21.60;99.90
21744;DHT22;11034;48.556;9.342;2023-05-07T09:30:03;21.60;99.90
21744;DHT22;11034;48.556;9.342;2023-05-07T09:32:35;21.80;99.90
21744;DHT22;11034;48.556;9.342;2023-05-07T09:35:05;21.80;99.90
21744;DHT22;11034;48.556;9.342;2023-05-07T09:37:34;22.20;99.90
21744;DHT22;11034;48.556;9.342;2023-05-07T09:40:04;22.20;99.90
21744;DHT22;11034;48.556;9.342;2023-05-07T09:42:33;22.40;99.90
21744;DHT22;11034;48.556;9.342;2023-05-07T09:45:05;22.70;99.90
21744;DHT22;11034;48.556;9.342;2023-05-07T09:47:36;23.00;99.90
21744;DHT22;11034;48.556;9.342;2023-05-07T09:50:08;23.00;99.90
21744;DHT22;11034;48.556;9.342;2023-05-07T09:52:38;23.40;99.90
21744;DHT22;11034;48.556;9.342;2023-05-07T09:55:08;23.60;99.90
21744;DHT22;11034;48.556;9.342;2023-05-07T09:57:38;23.40;99.90
21744;DHT22;11034;48.556;9.342;2023-05-07T10:00:10;23.00;99.90
21744;DHT22;11034;48.556;9.342;2023-05-07T10:02:39;23.10;99.90
21744;DHT22;11034;48.556;9.342;2023-05-07T10:05:14;22.90;99.90
21744;DHT22;11034;48.556;9.342;2023-05-07T10:07:42;22.80;99.90
21744;DHT22;11034;48.556;9.342;2023-05-07T10:10:11;22.80;99.90
21744;DHT22;11034;48.556;9.342;2023-05-07T10:12:40;23.00;99.90
21744;DHT22;11034;48.556;9.342;2023-05-07T10:15:10;23.10;99.90
21744;DHT22;11034;48.556;9.342;2023-05-07T10:17:40;23.20;99.90
21744;DHT22;11034;48.556;9.342;2023-05-07T10:20:08;23.20;99.90
21744;DHT22;11034;48.556;9.342;2023-05-07T10:22:38;23.40;99.90
21744;DHT22;11034;48.556;9.342;2023-05-07T10:25:14;23.50;99.90
21744;DHT22;11034;48.556;9.342;2023-05-07T10:27:45;23.50;99.90
21744;DHT22;11034;48.556;9.342;2023-05-07T10:30:26;23.70;99.90
21744;DHT22;11034;48.556;9.342;2023-05-07T10:33:02;24.00;99.90
21744;DHT22;11034;48.556;9.342;2023-05-07T10:35:39;23.90;99.90
21744;DHT22;11034;48.556;9.342;2023-05-07T10:38:08;23.70;99.90
21744;DHT22;11034;48.556;9.342;2023-05-07T10:40:36;23.60;99.90
21744;DHT22;11034;48.556;9.342;2023-05-07T10:43:05;23.50;99.90
21744;DHT22;11034;48.556;9.342;2023-05-07T10:45:38;23.60;99.90
21744;DHT22;11034;48.556;9.342;2023-05-07T10:48:07;23.60;99.90
21744;DHT22;11034;48.556;9.342;2023-05-07T10:51:18;23.40;99.90
21744;DHT22;11034;48.556;9.342;2023-05-07T10:53:46;23.40;99.90
21744;DHT22;11034;48.556;9.342;2023-05-07T10:56:35;23.10;99.90
21744;DHT22;11034;48.556;9.342;2023-05-07T10:59:38;23.30;99.90
21744;DHT22;11034;48.556;9.342;2023-05-07T11:02:10;23.10;99.90
21744;DHT22;11034;48.556;9.342;2023-05-07T11:04:41;23.00;99.90
21744;DHT22;11034;48.556;9.342;2023-05-07T11:07:25;22.90;99.90
21744;DHT22;11034;48.556;9.342;2023-05-07T11:10:04;23.20;99.90
21744;DHT22;11034;48.556;9.342;2023-05-07T11:13:03;23.30;99.90
21744;DHT22;11034;48.556;9.342;2023-05-07T11:15:42;23.30;99.90
21744;DHT22;11034;48.556;9.342;2023-05-07T11:18:14;23.20;99.90
21744;DHT22;11034;48.556;9.342;2023-05-07T11:20:56;23.20;99.90
21744;DHT22;11034;48.556;9.342;2023-05-07T11:23:55;23.00;99.90
21744;DHT22;11034;48.556;9.342;2023-05-07T11:26:28;22.90;99.90
21744;DHT22;11034;48.556;9.342;2023-05-07T11:28:57;22.90;99.90
21744;DHT22;11034;48.556;9.342;2023-05-07T11:31:27;22.80;99.90
21744;DHT22;11034;48.556;9.342;2023-05-07T11:33:58;23.00;99.90
21744;DHT22;11034;48.556;9.342;2023-05-07T11:36:30;23.00;99.90
21744;DHT22;11034;48.556;9.342;2023-05-07T11:38:59;22.80;99.90
21744;DHT22;11034;48.556;9.342;2023-05-07T11:41:34;22.80;99.90
21744;DHT22;11034;48.556;9.342;2023-05-07T11:44:03;22.80;99.90
21744;DHT22;11034;48.556;9.342;2023-05-07T11:46:32;22.70;99.90
21744;DHT22;11034;48.556;9.342;2023-05-07T11:49:02;22.50;99.90
21744;DHT22;11034;48.556;9.342;2023-05-07T11:51:31;22.10;99.90
21744;DHT22;11034;48.556;9.342;2023-05-07T11:53:59;21.00;99.90
21744;DHT22;11034;48.556;9.342;2023-05-07T11:56:27;20.40;99.90
21744;DHT22;11034;48.556;9.342;2023-05-07T11:58:55;19.60;99.90
21744;DHT22;11034;48.556;9.342;2023-05-07T12:01:23;18.90;99.90
21744;DHT22;11034;48.556;9.342;2023-05-07T12:03:51;18.20;99.90
21744;DHT22;11034;48.556;9.342;2023-05-07T12:06:20;17.30;99.90
21744;DHT22;11034;48.556;9.342;2023-05-07T12:08:48;16.80;99.90
21744;DHT22;11034;48.556;9.342;2023-05-07T12:11:22;16.40;99.90
21744;DHT22;11034;48.556;9.342;2023-05-07T12:13:50;16.20;99.90
21744;DHT22;11034;48.556;9.342;2023-05-07T12:16:19;16.10;99.90
21744;DHT22;11034;48.556;9.342;2023-05-07T12:18:47;16.00;99.90
21744;DHT22;11034;48.556;9.342;2023-05-07T12:21:16;16.10;99.90
21744;DHT22;11034;48.556;9.342;2023-05-07T12:23:45;16.00;99.90
21744;DHT22;11034;48.556;9.342;2023-05-07T12:26:14;16.00;99.90
21744;DHT22;11034;48.556;9.342;2023-05-07T12:28:42;15.80;99.90
21744;DHT22;11034;48.556;9.342;2023-05-07T12:31:10;15.70;99.90
21744;DHT22;11034;48.556;9.342;2023-05-07T12:33:38;15.80;99.90
21744;DHT22;11034;48.556;9.342;2023-05-07T12:36:08;15.90;99.90
21744;DHT22;11034;48.556;9.342;2023-05-07T12:38:37;16.10;99.90
21744;DHT22;11034;48.556;9.342;2023-05-07T12:41:08;16.20;99.90
21744;DHT22;11034;48.556;9.342;2023-05-07T12:43:36;16.30;99.90
21744;DHT22;11034;48.556;9.342;2023-05-07T12:46:06;16.60;99.90
21744;DHT22;11034;48.556;9.342;2023-05-07T12:48:37;16.70;99.90
21744;DHT22;11034;48.556;9.342;2023-05-07T12:51:06;17.00;99.90
21744;DHT22;11034;48.556;9.342;2023-05-07T12:53:40;17.00;99.90
21744;DHT22;11034;48.556;9.342;2023-05-07T12:56:10;17.20;99.90
21744;DHT22;11034;48.556;9.342;2023-05-07T12:58:40;17.20;99.90
21744;DHT22;11034;48.556;9.342;2023-05-07T13:01:08;17.20;99.90
21744;DHT22;11034;48.556;9.342;2023-05-07T13:03:38;17.20;99.90
21744;DHT22;11034;48.556;9.342;2023-05-07T13:06:08;17.10;99.90
21744;DHT22;11034;48.556;9.342;2023-05-07T13:08:40;17.10;99.90
21744;DHT22;11034;48.556;9.342;2023-05-07T13:11:12;17.00;99.90
21744;DHT22;11034;48.556;9.342;2023-05-07T13:13:41;16.90;99.90
21744;DHT22;11034;48.556;9.342;2023-05-07T13:16:10;16.90;99.90
21744;DHT22;11034;48.556;9.342;2023-05-07T13:18:40;16.80;99.90
21744;DHT22;11034;48.556;9.342;2023-05-07T13:21:10;16.80;99.90
21744;DHT22;11034;48.556;9.342;2023-05-07T13:23:40;16.70;99.90
21744;DHT22;11034;48.556;9.342;2023-05-07T13:26:08;16.60;99.90
21744;DHT22;11034;48.556;9.342;2023-05-07T13:28:54;16.30;99.90
21744;DHT22;11034;48.556;9.342;2023-05-07T13:31:23;16.30;99.90
21744;DHT22;11034;48.556;9.342;2023-05-07T13:33:51;16.30;99.90
21744;DHT22;11034;48.556;9.342;2023-05-07T13:36:19;16.30;99.90
21744;DHT22;11034;48.556;9.342;2023-05-07T13:38:47;16.20;99.90
21744;DHT22;11034;48.556;9.342;2023-05-07T13:41:15;16.10;99.90
21744;DHT22;11034;48.556;9.342;2023-05-07T13:43:43;15.90;99.90
21744;DHT22;11034;48.556;9.342;2023-05-07T13:46:13;15.30;99.90
21744;DHT22;11034;48.556;9.342;2023-05-07T13:48:41;14.90;99.90
21744;DHT22;11034;48.556;9.342;2023-05-07T13:51:09;14.60;99.90
21744;DHT22;11034;48.556;9.342;2023-05-07T13:53:37;14.50;99.90
21744;DHT22;11034;48.556;9.342;2023-05-07T13:56:05;14.40;99.90
21744;DHT22;11034;48.556;9.342;2023-05-07T13:58:33;14.30;99.90
21744;DHT22;11034;48.556;9.342;2023-05-07T14:01:10;14.20;99.90
21744;DHT22;11034;48.556;9.342;2023-05-07T14:03:40;14.10;99.90
21744;DHT22;11034;48.556;9.342;2023-05-07T14:06:08;14.00;99.90
21744;DHT22;11034;48.556;9.342;2023-05-07T14:08:36;13.90;99.90
21744;DHT22;11034;48.556;9.342;2023-05-07T14:11:04;13.80;99.90
21744;DHT22;11034;48.556;9.342;2023-05-07T14:13:32;13.80;99.90
21744;DHT22;11034;48.556;9.342;2023-05-07T14:16:02;13.80;99.90
21744;DHT22;11034;48.556;9.342;2023-05-07T14:18:30;13.80;99.90
21744;DHT22;11034;48.556;9.342;2023-05-07T14:21:01;13.90;99.90
21744;DHT22;11034;48.556;9.342;2023-05-07T14:23:29;13.90;99.90
21744;DHT22;11034;48.556;9.342;2023-05-07T14:25:57;13.90;99.90
21744;DHT22;11034;48.556;9.342;2023-05-07T14:28:25;13.90;99.90
21744;DHT22;11034;48.556;9.342;2023-05-07T14:30:53;13.90;99.90
21744;DHT22;11034;48.556;9.342;2023-05-07T14:33:21;14.00;99.90
21744;DHT22;11034;48.556;9.342;2023-05-07T14:35:49;14.00;99.90
21744;DHT22;11034;48.556;9.342;2023-05-07T14:38:19;13.90;99.90
21744;DHT22;11034;48.556;9.342;2023-05-07T14:40:47;13.90;99.90
21744;DHT22;11034;48.556;9.342;2023-05-07T14:43:15;14.00;99.90
21744;DHT22;11034;48.556;9.342;2023-05-07T14:45:43;13.90;99.90
21744;DHT22;11034;48.556;9.342;2023-05-07T14:48:11;13.90;99.90
21744;DHT22;11034;48.556;9.342;2023-05-07T14:50:41;14.00;99.90
21744;DHT22;11034;48.556;9.342;2023-05-07T14:53:09;14.10;99.90
21744;DHT22;11034;48.556;9.342;2023-05-07T14:55:39;14.10;99.90
21744;DHT22;11034;48.556;9.342;2023-05-07T14:58:07;14.10;99.90
21744;DHT22;11034;48.556;9.342;2023-05-07T15:00:35;14.20;99.90
21744;DHT22;11034;48.556;9.342;2023-05-07T15:03:06;14.40;99.90
21744;DHT22;11034;48.556;9.342;2023-05-07T15:05:35;14.50;99.90
21744;DHT22;11034;48.556;9.342;2023-05-07T15:08:03;14.50;99.90
21744;DHT22;11034;48.556;9.342;2023-05-07T15:10:35;14.50;99.90
21744;DHT22;11034;48.556;9.342;2023-05-07T15:13:09;14.60;99.90
21744;DHT22;11034;48.556;9.342;2023-05-07T15:15:42;14.80;99.90
21744;DHT22;11034;48.556;9.342;2023-05-07T15:18:11;14.70;99.90
21744;DHT22;11034;48.556;9.342;2023-05-07T15:20:39;14.60;99.90
21744;DHT22;11034;48.556;9.342;2023-05-07T15:23:08;14.70;99.90
21744;DHT22;11034;48.556;9.342;2023-05-07T15:25:39;14.70;99.90
21744;DHT22;11034;48.556;9.342;2023-05-07T15:28:08;14.80;99.90
21744;DHT22;11034;48.556;9.342;2023-05-07T15:30:36;14.80;99.90
21744;DHT22;11034;48.556;9.342;2023-05-07T15:33:04;15.00;99.90
21744;DHT22;11034;48.556;9.342;2023-05-07T15:35:32;15.10;99.90
21744;DHT22;11034;48.556;9.342;2023-05-07T15:38:00;15.20;99.90
21744;DHT22;11034;48.556;9.342;2023-05-07T15:40:30;15.40;99.90
21744;DHT22;11034;48.556;9.342;2023-05-07T15:42:59;15.60;99.90